Time,TemperatureF,DewpointF,PressureIn,WindDirection,WindDirectionDegrees,WindSpeedMPH,WindSpeedGustMPH,Humidity,HourlyPrecipIn,Conditions,Clouds,dailyrainin,SoftwareType,DateUTC
2013-02-13 00:00:00,39.6,33.0,30.09,NNW,340,4.0,4.0,77,0.00,,,0.01,Wunderground v.1.15,2013-02-13 06:00:00,
2013-02-13 00:10:00,39.3,33.0,30.08,NNW,337,4.0,7.0,78,0.00,,,0.00,Wunderground v.1.15,2013-02-13 06:10:00,
2013-02-13 00:20:00,39.0,33.0,30.08,NNW,344,6.0,6.0,79,0.00,,,0.00,Wunderground v.1.15,2013-02-13 06:20:00,
2013-02-13 00:30:00,38.8,32.8,30.08,NW,314,6.0,6.0,79,0.00,,,0.00,Wunderground v.1.15,2013-02-13 06:30:00,
2013-02-13 00:40:00,38.7,33.1,30.09,NNW,335,5.0,5.0,80,0.00,,,0.00,Wunderground v.1.15,2013-02-13 06:40:00,
2013-02-13 00:50:00,38.5,32.9,30.09,NNW,340,4.0,4.0,80,0.00,,,0.00,Wunderground v.1.15,2013-02-13 06:50:00,
2013-02-13 01:00:00,38.4,33.1,30.09,NNW,336,2.0,2.0,81,0.00,,,0.00,Wunderground v.1.15,2013-02-13 07:00:00,
2013-02-13 01:10:00,38.5,33.2,30.09,NNW,327,1.0,1.0,81,0.00,,,0.00,Wunderground v.1.15,2013-02-13 07:10:00,
2013-02-13 01:20:00,38.7,33.4,30.10,NW,322,0.0,3.0,81,0.00,,,0.00,Wunderground v.1.15,2013-02-13 07:20:00,
2013-02-13 01:30:00,38.6,33.0,30.09,NNW,327,2.0,2.0,80,0.00,,,0.00,Wunderground v.1.15,2013-02-13 07:30:00,
2013-02-13 01:40:00,38.3,32.7,30.09,NW,322,3.0,6.0,80,0.00,,,0.00,Wunderground v.1.15,2013-02-13 07:40:00,
2013-02-13 01:50:00,38.0,32.7,30.09,NNW,329,4.0,4.0,81,0.00,,,0.00,Wunderground v.1.15,2013-02-13 07:50:00,
2013-02-13 02:00:00,37.8,32.5,30.09,NNW,332,2.0,2.0,81,0.00,,,0.00,Wunderground v.1.15,2013-02-13 08:00:00,
2013-02-13 02:10:00,37.5,32.5,30.09,NW,321,1.0,4.0,82,0.00,,,0.00,Wunderground v.1.15,2013-02-13 08:10:00,
2013-02-13 02:20:00,37.3,32.3,30.09,NW,321,0.0,3.0,82,0.00,,,0.00,Wunderground v.1.15,2013-02-13 08:20:00,
2013-02-13 02:30:00,37.1,32.4,30.08,NW,321,0.0,3.0,83,0.00,,,0.00,Wunderground v.1.15,2013-02-13 08:30:00,
2013-02-13 02:40:00,36.7,32.0,30.08,NW,321,0.0,3.0,83,0.00,,,0.00,Wunderground v.1.15,2013-02-13 08:40:00,
2013-02-13 02:50:00,36.5,32.1,30.09,NW,321,0.0,3.0,84,0.00,,,0.00,Wunderground v.1.15,2013-02-13 08:50:00,
2013-02-13 03:00:00,36.3,32.2,30.08,NW,321,0.0,3.0,85,0.00,,,0.00,Wunderground v.1.15,2013-02-13 09:00:00,
2013-02-13 03:10:00,36.1,32.0,30.09,NW,321,0.0,3.0,85,0.00,,,0.00,Wunderground v.1.15,2013-02-13 09:10:00,
2013-02-13 03:20:00,35.7,31.6,30.10,NW,321,0.0,3.0,85,0.00,,,0.00,Wunderground v.1.15,2013-02-13 09:20:00,
2013-02-13 03:30:00,35.5,31.4,30.10,NW,321,0.0,3.0,85,0.00,,,0.00,Wunderground v.1.15,2013-02-13 09:30:00,
2013-02-13 03:40:00,35.2,31.4,30.11,NW,321,0.0,3.0,86,0.00,,,0.00,Wunderground v.1.15,2013-02-13 09:40:00,
2013-02-13 03:50:00,34.7,30.9,30.11,NW,321,0.0,3.0,86,0.00,,,0.00,Wunderground v.1.15,2013-02-13 09:50:00,
2013-02-13 04:00:00,34.5,31.0,30.11,NW,321,0.0,3.0,87,0.00,,,0.00,Wunderground v.1.15,2013-02-13 10:00:00,
2013-02-13 04:10:00,34.4,30.9,30.11,NW,321,0.0,3.0,87,0.00,,,0.00,Wunderground v.1.15,2013-02-13 10:10:00,
2013-02-13 04:30:00,33.9,30.7,30.11,NW,320,0.0,3.0,88,0.00,,,0.00,Wunderground v.1.15,2013-02-13 10:30:00,
2013-02-13 04:40:00,33.7,30.5,30.11,NW,320,0.0,3.0,88,0.00,,,0.00,Wunderground v.1.15,2013-02-13 10:40:00,
2013-02-13 04:50:00,33.5,30.6,30.11,NW,320,0.0,3.0,89,0.00,,,0.00,Wunderground v.1.15,2013-02-13 10:50:00,
2013-02-13 05:00:00,33.3,30.4,30.11,NW,320,0.0,3.0,89,0.00,,,0.00,Wunderground v.1.15,2013-02-13 11:00:00,
2013-02-13 05:10:00,33.2,30.3,30.11,NW,320,0.0,3.0,89,0.00,,,0.00,Wunderground v.1.15,2013-02-13 11:10:00,
2013-02-13 05:20:00,33.0,30.1,30.11,NW,320,0.0,3.0,89,0.00,,,0.00,Wunderground v.1.15,2013-02-13 11:20:00,
2013-02-13 05:30:00,32.8,30.2,30.11,NW,320,0.0,3.0,90,0.00,,,0.00,Wunderground v.1.15,2013-02-13 11:30:00,
2013-02-13 05:40:00,32.6,30.0,30.11,NW,320,0.0,3.0,90,0.00,,,0.00,Wunderground v.1.15,2013-02-13 11:40:00,
2013-02-13 05:50:00,32.5,29.9,30.11,NW,320,0.0,3.0,90,0.00,,,0.00,Wunderground v.1.15,2013-02-13 11:50:00,
2013-02-13 06:00:00,32.3,29.7,30.11,NW,320,0.0,3.0,90,0.00,,,0.00,Wunderground v.1.15,2013-02-13 12:00:00,
2013-02-13 06:10:00,32.2,29.6,30.11,NW,320,0.0,3.0,90,0.00,,,0.00,Wunderground v.1.15,2013-02-13 12:10:00,
2013-02-13 06:20:00,32.0,29.4,30.11,NW,320,0.0,3.0,90,0.00,,,0.00,Wunderground v.1.15,2013-02-13 12:20:00,
2013-02-13 06:30:00,32.1,29.8,30.12,NW,320,0.0,3.0,91,0.00,,,0.00,Wunderground v.1.15,2013-02-13 12:30:00,
2013-02-13 06:40:00,32.1,29.8,30.12,NW,320,0.0,3.0,91,0.00,,,0.00,Wunderground v.1.15,2013-02-13 12:40:00,
2013-02-13 06:50:00,32.1,29.8,30.13,NW,319,0.0,3.0,91,0.00,,,0.00,Wunderground v.1.15,2013-02-13 12:50:00,
2013-02-13 07:00:00,31.9,29.6,30.13,NW,319,0.0,3.0,91,0.00,,,0.00,Wunderground v.1.15,2013-02-13 13:00:00,
2013-02-13 07:10:00,31.7,29.4,30.13,NW,319,0.0,3.0,91,0.00,,,0.00,Wunderground v.1.15,2013-02-13 13:10:00,
2013-02-13 07:20:00,31.6,29.3,30.13,NW,319,0.0,3.0,91,0.00,,,0.00,Wunderground v.1.15,2013-02-13 13:20:00,
2013-02-13 07:30:00,31.5,29.2,30.14,NW,319,0.0,3.0,91,0.00,,,0.00,Wunderground v.1.15,2013-02-13 13:30:00,
2013-02-13 07:40:00,31.6,29.5,30.14,NW,319,0.0,3.0,92,0.00,,,0.00,Wunderground v.1.15,2013-02-13 13:40:00,
2013-02-13 07:50:00,32.2,30.1,30.14,NW,319,0.0,3.0,92,0.00,,,0.00,Wunderground v.1.15,2013-02-13 13:50:00,
2013-02-13 08:00:00,32.6,30.5,30.14,NW,319,0.0,3.0,92,0.00,,,0.00,Wunderground v.1.15,2013-02-13 14:00:00,
2013-02-13 08:10:00,33.1,30.8,30.14,NW,319,0.0,3.0,91,0.00,,,0.00,Wunderground v.1.15,2013-02-13 14:10:00,
2013-02-13 08:20:00,33.7,31.4,30.15,NW,318,0.0,3.0,91,0.00,,,0.00,Wunderground v.1.15,2013-02-13 14:20:00,
2013-02-13 08:30:00,34.4,31.8,30.16,NW,317,0.0,3.0,90,0.00,,,0.00,Wunderground v.1.15,2013-02-13 14:30:00,
2013-02-13 08:40:00,35.3,32.1,30.16,NW,315,0.0,3.0,88,0.00,,,0.00,Wunderground v.1.15,2013-02-13 14:40:00,
2013-02-13 08:50:00,36.3,32.8,30.16,NW,315,0.0,3.0,87,0.00,,,0.00,Wunderground v.1.15,2013-02-13 14:50:00,
2013-02-13 09:00:00,37.1,33.0,30.16,WNW,294,0.0,3.0,85,0.00,,,0.00,Wunderground v.1.15,2013-02-13 15:00:00,
2013-02-13 09:10:00,38.1,33.7,30.16,WNW,294,0.0,3.0,84,0.00,,,0.00,Wunderground v.1.15,2013-02-13 15:10:00,
2013-02-13 09:20:00,38.8,33.8,30.17,WSW,255,0.0,3.0,82,0.00,,,0.00,Wunderground v.1.15,2013-02-13 15:20:00,
2013-02-13 09:30:00,39.7,34.3,30.17,WSW,254,0.0,3.0,81,0.00,,,0.00,Wunderground v.1.15,2013-02-13 15:30:00,
2013-02-13 09:40:00,40.4,34.7,30.17,WSW,256,0.0,3.0,80,0.00,,,0.00,Wunderground v.1.15,2013-02-13 15:40:00,
2013-02-13 09:50:00,41.4,35.1,30.17,West,263,0.0,3.0,78,0.00,,,0.00,Wunderground v.1.15,2013-02-13 15:50:00,
2013-02-13 10:00:00,42.0,34.6,30.17,West,263,0.0,3.0,75,0.00,,,0.00,Wunderground v.1.15,2013-02-13 16:00:00,
2013-02-13 10:10:00,42.6,34.9,30.17,NW,309,1.0,4.0,74,0.00,,,0.00,Wunderground v.1.15,2013-02-13 16:10:00,
2013-02-13 10:20:00,43.5,35.1,30.17,West,271,1.0,1.0,72,0.00,,,0.00,Wunderground v.1.15,2013-02-13 16:20:00,
2013-02-13 10:30:00,44.2,35.0,30.17,West,274,0.0,3.0,70,0.00,,,0.00,Wunderground v.1.15,2013-02-13 16:30:00,
2013-02-13 10:40:00,45.0,35.1,30.17,West,278,1.0,1.0,68,0.00,,,0.00,Wunderground v.1.15,2013-02-13 16:40:00,
2013-02-13 10:50:00,45.4,35.1,30.16,NW,304,0.0,3.0,67,0.00,,,0.00,Wunderground v.1.15,2013-02-13 16:50:00,
2013-02-13 11:00:00,46.1,35.0,30.16,NNE,13,0.0,3.0,65,0.00,,,0.00,Wunderground v.1.15,2013-02-13 17:00:00,
2013-02-13 11:10:00,46.7,35.2,30.16,WNW,290,0.0,3.0,64,0.00,,,0.00,Wunderground v.1.15,2013-02-13 17:10:00,
2013-02-13 11:20:00,47.5,35.5,30.16,WNW,291,0.0,3.0,63,0.00,,,0.00,Wunderground v.1.15,2013-02-13 17:20:00,
2013-02-13 11:30:00,48.2,35.4,30.15,WNW,298,0.0,7.0,61,0.00,,,0.00,Wunderground v.1.15,2013-02-13 17:30:00,
2013-02-13 11:40:00,48.9,35.2,30.15,NW,311,5.0,5.0,59,0.00,,,0.00,Wunderground v.1.15,2013-02-13 17:40:00,
2013-02-13 11:50:00,49.4,34.8,30.14,WNW,294,1.0,3.0,57,0.00,,,0.00,Wunderground v.1.15,2013-02-13 17:50:00,
2013-02-13 12:00:00,50.2,36.0,30.14,WNW,293,0.0,3.0,58,0.00,,,0.00,Wunderground v.1.15,2013-02-13 18:00:00,
2013-02-13 12:10:00,51.3,36.1,30.13,WNW,288,1.0,3.0,56,0.00,,,0.00,Wunderground v.1.15,2013-02-13 18:10:00,
2013-02-13 12:20:00,51.9,34.8,30.13,North,349,0.0,3.0,52,0.00,,,0.00,Wunderground v.1.15,2013-02-13 18:20:00,
2013-02-13 12:30:00,52.0,34.4,30.13,WNW,292,0.0,3.0,51,0.00,,,0.00,Wunderground v.1.15,2013-02-13 18:30:00,
2013-02-13 12:40:00,52.5,33.9,30.12,NW,304,0.0,3.0,49,0.00,,,0.00,Wunderground v.1.15,2013-02-13 18:40:00,
2013-02-13 12:50:00,52.8,32.6,30.12,WNW,300,0.0,3.0,46,0.00,,,0.00,Wunderground v.1.15,2013-02-13 18:50:00,
2013-02-13 13:00:00,53.5,32.1,30.11,NNW,338,3.0,4.0,44,0.00,,,0.00,Wunderground v.1.15,2013-02-13 19:00:00,
2013-02-13 13:10:00,53.9,33.6,30.10,South,186,0.0,3.0,46,0.00,,,0.00,Wunderground v.1.15,2013-02-13 19:10:00,
2013-02-13 13:20:00,54.3,33.4,30.10,NW,308,0.0,3.0,45,0.00,,,0.00,Wunderground v.1.15,2013-02-13 19:20:00,
2013-02-13 13:30:00,54.7,33.2,30.09,WNW,296,0.0,3.0,44,0.00,,,0.00,Wunderground v.1.15,2013-02-13 19:30:00,
2013-02-13 13:40:00,55.6,34.0,30.08,North,360,0.0,3.0,44,0.00,,,0.00,Wunderground v.1.15,2013-02-13 19:40:00,
2013-02-13 13:50:00,56.2,31.5,30.07,West,273,0.0,3.0,39,0.00,,,0.00,Wunderground v.1.15,2013-02-13 19:50:00,
2013-02-13 14:00:00,56.2,29.6,30.07,NW,323,0.0,3.0,36,0.00,,,0.00,Wunderground v.1.15,2013-02-13 20:00:00,
2013-02-13 14:10:00,56.5,29.1,30.06,NW,315,0.0,3.0,35,0.00,,,0.00,Wunderground v.1.15,2013-02-13 20:10:00,
2013-02-13 14:20:00,56.7,30.7,30.06,South,175,0.0,3.0,37,0.00,,,0.00,Wunderground v.1.15,2013-02-13 20:20:00,
2013-02-13 14:30:00,57.0,28.9,30.06,SW,236,0.0,3.0,34,0.00,,,0.00,Wunderground v.1.15,2013-02-13 20:30:00,
2013-02-13 14:40:00,57.7,28.0,30.05,SW,235,0.0,3.0,32,0.00,,,0.00,Wunderground v.1.15,2013-02-13 20:40:00,
2013-02-13 14:50:00,58.0,28.3,30.05,NNE,28,0.0,3.0,32,0.00,,,0.00,Wunderground v.1.15,2013-02-13 20:50:00,
2013-02-13 15:00:00,58.2,29.2,30.04,North,5,0.0,3.0,33,0.00,,,0.00,Wunderground v.1.15,2013-02-13 21:00:00,
2013-02-13 15:10:00,58.5,28.7,30.04,North,355,0.0,3.0,32,0.00,,,0.00,Wunderground v.1.15,2013-02-13 21:10:00,
2013-02-13 15:20:00,58.7,30.4,30.04,WNW,292,0.0,3.0,34,0.00,,,0.00,Wunderground v.1.15,2013-02-13 21:20:00,
2013-02-13 15:30:00,59.3,30.2,30.03,WSW,247,0.0,3.0,33,0.00,,,0.00,Wunderground v.1.15,2013-02-13 21:30:00,
2013-02-13 15:40:00,59.3,30.2,30.03,WSW,251,0.0,3.0,33,0.00,,,0.00,Wunderground v.1.15,2013-02-13 21:40:00,
2013-02-13 15:50:00,59.3,30.9,30.03,NNE,18,0.0,3.0,34,0.00,,,0.00,Wunderground v.1.15,2013-02-13 21:50:00,
2013-02-13 16:00:00,59.9,29.9,30.03,NNW,327,0.0,3.0,32,0.00,,,0.00,Wunderground v.1.15,2013-02-13 22:00:00,
2013-02-13 16:20:00,60.2,30.2,30.03,West,261,0.0,3.0,32,0.00,,,0.00,Wunderground v.1.15,2013-02-13 22:20:00,
2013-02-13 16:30:00,60.3,29.5,30.03,WNW,284,0.0,3.0,31,0.00,,,0.00,Wunderground v.1.15,2013-02-13 22:30:00,
2013-02-13 16:40:00,59.5,28.0,30.03,West,281,0.0,3.0,30,0.00,,,0.00,Wunderground v.1.15,2013-02-13 22:40:00,
2013-02-13 16:50:00,59.2,27.7,30.03,WNW,282,0.0,3.0,30,0.00,,,0.00,Wunderground v.1.15,2013-02-13 22:50:00,
2013-02-13 17:00:00,59.0,28.4,30.02,WNW,282,0.0,3.0,31,0.00,,,0.00,Wunderground v.1.15,2013-02-13 23:00:00,
2013-02-13 17:10:00,58.6,27.2,30.02,NW,315,0.0,3.0,30,0.00,,,0.00,Wunderground v.1.15,2013-02-13 23:10:00,
2013-02-13 17:20:00,58.4,27.9,30.02,WNW,290,0.0,3.0,31,0.00,,,0.00,Wunderground v.1.15,2013-02-13 23:20:00,
2013-02-13 17:30:00,58.2,27.7,30.02,SSW,209,0.0,3.0,31,0.00,,,0.00,Wunderground v.1.15,2013-02-13 23:30:00,
2013-02-13 17:40:00,57.8,28.1,30.02,SSW,204,0.0,3.0,32,0.00,,,0.00,Wunderground v.1.15,2013-02-13 23:40:00,
2013-02-13 17:50:00,57.4,27.7,30.02,SSW,204,0.0,3.0,32,0.00,,,0.00,Wunderground v.1.15,2013-02-13 23:50:00,
2013-02-13 18:00:00,56.9,26.5,30.02,SSW,204,0.0,3.0,31,0.00,,,0.00,Wunderground v.1.15,2013-02-14 00:00:00,
2013-02-13 18:10:00,56.7,27.9,30.02,SSW,204,0.0,3.0,33,0.00,,,0.00,Wunderground v.1.15,2013-02-14 00:10:00,
2013-02-13 18:20:00,55.9,27.2,30.02,SSW,204,0.0,3.0,33,0.00,,,0.00,Wunderground v.1.15,2013-02-14 00:20:00,
2013-02-13 18:30:00,55.0,28.5,30.02,SSW,204,0.0,3.0,36,0.00,,,0.00,Wunderground v.1.15,2013-02-14 00:30:00,
2013-02-13 18:40:00,54.1,27.7,30.02,SSW,204,0.0,3.0,36,0.00,,,0.00,Wunderground v.1.15,2013-02-14 00:40:00,
2013-02-13 18:50:00,53.5,27.8,30.02,SSW,204,0.0,3.0,37,0.00,,,0.00,Wunderground v.1.15,2013-02-14 00:50:00,
2013-02-13 19:00:00,53.1,28.1,30.03,SSW,204,0.0,3.0,38,0.00,,,0.00,Wunderground v.1.15,2013-02-14 01:00:00,
2013-02-13 19:10:00,52.8,27.9,30.03,SSW,204,0.0,3.0,38,0.00,,,0.00,Wunderground v.1.15,2013-02-14 01:10:00,
2013-02-13 19:20:00,52.5,27.6,30.03,SSW,204,0.0,3.0,38,0.00,,,0.00,Wunderground v.1.15,2013-02-14 01:20:00,
2013-02-13 19:30:00,51.8,28.2,30.03,SSW,204,0.0,3.0,40,0.00,,,0.00,Wunderground v.1.15,2013-02-14 01:30:00,
2013-02-13 19:40:00,51.1,28.2,30.04,SSW,204,0.0,3.0,41,0.00,,,0.00,Wunderground v.1.15,2013-02-14 01:40:00,
2013-02-13 19:50:00,50.3,30.8,30.04,SSW,204,0.0,3.0,47,0.00,,,0.00,Wunderground v.1.15,2013-02-14 01:50:00,
2013-02-13 20:00:00,49.3,28.3,30.04,SSW,204,0.0,3.0,44,0.00,,,0.00,Wunderground v.1.15,2013-02-14 02:00:00,
2013-02-13 20:10:00,48.8,28.9,30.04,SSW,204,0.0,3.0,46,0.00,,,0.00,Wunderground v.1.15,2013-02-14 02:10:00,
2013-02-13 20:20:00,48.4,29.1,30.04,SSW,204,0.0,3.0,47,0.00,,,0.00,Wunderground v.1.15,2013-02-14 02:20:00,
2013-02-13 20:30:00,48.2,28.9,30.05,SSW,204,0.0,3.0,47,0.00,,,0.00,Wunderground v.1.15,2013-02-14 02:30:00,
2013-02-13 20:40:00,47.9,28.6,30.05,SSW,204,0.0,3.0,47,0.00,,,0.00,Wunderground v.1.15,2013-02-14 02:40:00,
2013-02-13 20:50:00,47.6,28.9,30.05,SSW,204,0.0,3.0,48,0.00,,,0.00,Wunderground v.1.15,2013-02-14 02:50:00,
2013-02-13 21:00:00,47.2,28.5,30.04,SSW,204,0.0,3.0,48,0.00,,,0.00,Wunderground v.1.15,2013-02-14 03:00:00,
2013-02-13 21:10:00,46.8,29.1,30.05,SSW,204,0.0,3.0,50,0.00,,,0.00,Wunderground v.1.15,2013-02-14 03:10:00,
2013-02-13 21:20:00,46.3,29.1,30.05,SSW,204,0.0,3.0,51,0.00,,,0.00,Wunderground v.1.15,2013-02-14 03:20:00,
2013-02-13 21:30:00,45.7,28.6,30.05,SSW,204,0.0,3.0,51,0.00,,,0.00,Wunderground v.1.15,2013-02-14 03:30:00,
2013-02-13 21:40:00,45.4,28.3,30.05,SSW,204,0.0,3.0,51,0.00,,,0.00,Wunderground v.1.15,2013-02-14 03:40:00,
2013-02-13 21:50:00,45.1,28.5,30.05,SSW,204,0.0,3.0,52,0.00,,,0.00,Wunderground v.1.15,2013-02-14 03:50:00,
2013-02-13 22:00:00,44.7,28.1,30.06,SSW,204,0.0,3.0,52,0.00,,,0.00,Wunderground v.1.15,2013-02-14 04:00:00,
2013-02-13 22:10:00,44.2,28.1,30.06,SSW,204,0.0,3.0,53,0.00,,,0.00,Wunderground v.1.15,2013-02-14 04:10:00,
2013-02-13 22:20:00,43.8,28.2,30.06,SSW,204,0.0,3.0,54,0.00,,,0.00,Wunderground v.1.15,2013-02-14 04:20:00,
2013-02-13 22:30:00,43.4,27.8,30.06,SSW,204,0.0,3.0,54,0.00,,,0.00,Wunderground v.1.15,2013-02-14 04:30:00,
2013-02-13 22:40:00,43.3,27.3,30.06,SSW,204,0.0,3.0,53,0.00,,,0.00,Wunderground v.1.15,2013-02-14 04:40:00,
2013-02-13 22:50:00,43.3,27.3,30.06,SSW,204,0.0,3.0,53,0.00,,,0.00,Wunderground v.1.15,2013-02-14 04:50:00,
2013-02-13 23:00:00,43.2,27.7,30.06,SSW,204,0.0,3.0,54,0.00,,,0.00,Wunderground v.1.15,2013-02-14 05:00:00,
2013-02-13 23:10:00,42.9,27.4,30.07,SSW,204,0.0,3.0,54,0.00,,,0.00,Wunderground v.1.15,2013-02-14 05:10:00,
2013-02-13 23:20:00,42.7,27.6,30.06,SSW,204,0.0,3.0,55,0.00,,,0.00,Wunderground v.1.15,2013-02-14 05:20:00,
2013-02-13 23:30:00,42.2,28.0,30.06,SSW,204,0.0,3.0,57,0.00,,,0.00,Wunderground v.1.15,2013-02-14 05:30:00,
2013-02-13 23:40:00,41.8,28.1,30.05,SSW,204,0.0,3.0,58,0.00,,,0.00,Wunderground v.1.15,2013-02-14 05:40:00,
2013-02-13 23:50:00,41.6,28.3,30.05,SSW,204,0.0,3.0,59,0.00,,,0.00,Wunderground v.1.15,2013-02-14 05:50:00,